Time;durP1;ratioP1;P1;durP2;ratioP2;P2;SDS_P1;SDS_P2;PMS_P1;PMS_P2;Temp;Humidity;BMP_temperature;BMP_pressure;BME280_temperature;BME280_humidity;BME280_pressure;Samples;Min_cycle;Max_cycle;Signal;HPM_P1;HPM_P2
2023/10/13 00:00:36;;;;;;;23.13;14.75;;;;;;;14.15;100.00;99540.38;5077029;28;20402;-86
2023/10/13 00:03:02;;;;;;;18.83;12.35;;;;;;;14.07;100.00;99529.53;5077004;28;20368;-86
2023/10/13 00:05:30;;;;;;;15.88;13.05;;;;;;;13.88;100.00;99492.38;5095371;28;20028;-86
2023/10/13 00:08:00;;;;;;;18.98;13.23;;;;;;;14.25;100.00;99558.16;5076965;28;20024;-85
2023/10/13 00:10:26;;;;;;;15.98;12.88;;;;;;;14.23;100.00;99558.22;5095290;28;20070;-86
2023/10/13 00:12:51;;;;;;;16.40;12.75;;;;;;;13.86;100.00;99489.84;5095122;28;20469;-86
2023/10/13 00:15:17;;;;;;;19.30;14.13;;;;;;;14.06;100.00;99521.78;5095253;28;20035;-86
2023/10/13 00:17:43;;;;;;;15.68;12.88;;;;;;;14.19;100.00;99546.25;5095264;28;20039;-86
2023/10/13 00:20:28;;;;;;;20.75;14.07;;;;;;;14.17;100.00;99530.66;5095074;28;20024;-86
2023/10/13 00:22:53;;;;;;;22.52;13.75;;;;;;;14.14;100.00;99537.84;5094861;28;20032;-86
2023/10/13 00:25:26;;;;;;;18.20;13.40;;;;;;;14.16;100.00;99528.16;5094975;28;20039;-86
2023/10/13 00:27:52;;;;;;;20.02;14.10;;;;;;;14.10;100.00;99516.25;5076850;28;20028;-86
2023/10/13 00:32:52;;;;;;;17.10;13.30;;;;;;;14.23;100.00;99534.66;5094971;28;20032;-86
2023/10/13 00:35:36;;;;;;;17.85;12.20;;;;;;;14.22;100.00;99544.28;5076629;28;20016;-86
2023/10/13 00:38:18;;;;;;;20.40;12.57;;;;;;;14.17;100.00;99535.06;5076278;28;20035;-86
2023/10/13 00:40:51;;;;;;;22.48;13.48;;;;;;;14.26;100.00;99542.31;5094940;28;20024;-86
2023/10/13 00:45:55;;;;;;;17.30;11.70;;;;;;;14.27;100.00;99544.00;5094576;28;20070;-86
2023/10/13 00:48:34;;;;;;;20.90;11.85;;;;;;;14.32;100.00;99565.50;5076222;28;20028;-86
2023/10/13 00:51:07;;;;;;;16.17;11.20;;;;;;;14.08;100.00;99526.00;5076248;28;20070;-86
2023/10/13 00:53:47;;;;;;;18.75;13.13;;;;;;;14.19;100.00;99525.31;5076384;28;20031;-86
2023/10/13 00:56:19;;;;;;;21.20;14.93;;;;;;;14.18;100.00;99519.22;5094099;28;20113;-86
2023/10/13 00:58:52;;;;;;;31.02;20.73;;;;;;;14.24;100.00;99538.94;5076005;28;20036;-85
2023/10/13 01:01:21;;;;;;;23.90;17.48;;;;;;;14.02;100.00;99515.91;5094520;28;20037;-85
2023/10/13 01:03:55;;;;;;;21.33;14.00;;;;;;;14.25;100.00;99542.44;5076111;28;20390;-86
2023/10/13 01:06:25;;;;;;;18.80;13.50;;;;;;;14.25;100.00;99540.66;5076113;28;20024;-86
2023/10/13 01:12:00;;;;;;;19.20;13.48;;;;;;;13.95;100.00;99483.19;5011486;28;20034;-86
2023/10/13 01:14:28;;;;;;;19.23;14.75;;;;;;;14.35;100.00;99543.53;5011514;28;20085;-86
2023/10/13 01:16:55;;;;;;;22.80;14.10;;;;;;;14.29;100.00;99550.00;4994811;28;20513;-85
2023/10/13 01:19:24;;;;;;;25.17;16.02;;;;;;;13.93;100.00;99500.75;5011431;28;20058;-86
2023/10/13 01:21:54;;;;;;;21.45;16.08;;;;;;;14.16;100.00;99549.09;4995057;28;20136;-85
2023/10/13 01:24:23;;;;;;;23.40;16.63;;;;;;;13.96;100.00;99504.03;5011433;28;20029;-86
2023/10/13 01:26:51;;;;;;;28.55;18.10;;;;;;;14.13;100.00;99539.63;4994919;28;20620;-86
2023/10/13 01:29:18;;;;;;;30.00;18.48;;;;;;;14.16;100.00;99543.84;5011327;28;20560;-86
2023/10/13 01:31:45;;;;;;;26.25;18.45;;;;;;;14.26;100.00;99560.66;5011383;28;20065;-86
2023/10/13 01:34:21;;;;;;;29.10;17.55;;;;;;;13.91;100.00;99507.91;5011007;28;20606;-86
2023/10/13 01:36:54;;;;;;;26.27;16.83;;;;;;;14.07;100.00;99518.22;5011267;28;20026;-86
2023/10/13 01:39:21;;;;;;;20.65;16.10;;;;;;;14.30;100.00;99553.47;5011223;28;20391;-86
2023/10/13 01:41:53;;;;;;;20.52;16.08;;;;;;;14.27;100.00;99540.53;5011236;28;20030;-86
2023/10/13 01:44:19;;;;;;;29.02;18.20;;;;;;;14.17;100.00;99519.34;4994732;28;20092;-86
2023/10/13 01:46:47;;;;;;;28.05;18.20;;;;;;;14.34;100.00;99547.09;5011108;28;20124;-86
2023/10/13 01:49:15;;;;;;;26.23;17.83;;;;;;;14.17;100.00;99525.41;5082007;28;20079;-86
2023/10/13 01:51:41;;;;;;;26.15;16.35;;;;;;;14.10;100.00;99518.88;5093472;28;20027;-86
2023/10/13 01:54:11;;;;;;;19.63;15.18;;;;;;;14.02;100.00;99505.41;5093053;28;20024;-85
2023/10/13 01:56:42;;;;;;;20.45;14.93;;;;;;;14.19;100.00;99528.75;5071514;28;20052;-86
2023/10/13 01:59:09;;;;;;;18.63;14.20;;;;;;;14.41;100.00;99564.94;5072490;28;20020;-85
2023/10/13 02:01:34;;;;;;;18.63;13.25;;;;;;;14.34;100.00;99550.53;5072800;28;20486;-86
2023/10/13 02:04:04;;;;;;;19.30;14.32;;;;;;;14.23;100.00;99530.25;5071247;28;20028;-86
2023/10/13 02:06:36;;;;;;;18.85;14.13;;;;;;;14.47;100.00;99563.69;5071536;28;20074;-86
2023/10/13 02:09:12;;;;;;;22.80;15.40;;;;;;;14.24;100.00;99520.59;5072643;28;20452;-85
2023/10/13 02:11:39;;;;;;;18.55;12.95;;;;;;;14.37;100.00;99541.66;5072663;28;20042;-86
2023/10/13 02:14:05;;;;;;;18.42;13.07;;;;;;;14.36;100.00;99542.56;5071378;28;20108;-86
2023/10/13 02:16:31;;;;;;;17.08;12.88;;;;;;;14.34;100.00;99547.91;5070861;28;20120;-86
2023/10/13 02:18:57;;;;;;;19.38;13.23;;;;;;;14.36;100.00;99545.19;5072494;28;20025;-86
2023/10/13 02:21:31;;;;;;;20.80;12.68;;;;;;;14.29;100.00;99544.75;5072917;28;20029;-86
2023/10/13 02:23:59;;;;;;;22.55;13.70;;;;;;;14.12;100.00;99514.41;5070966;28;20017;-86
2023/10/13 02:26:38;;;;;;;18.42;12.82;;;;;;;14.32;100.00;99539.31;5072668;28;20464;-86
2023/10/13 02:29:07;;;;;;;16.65;12.88;;;;;;;13.94;100.00;99479.72;5071077;28;20039;-86
2023/10/13 02:31:34;;;;;;;23.55;14.75;;;;;;;14.23;100.00;99534.66;5071142;28;20025;-85
2023/10/13 02:34:00;;;;;;;17.25;13.02;;;;;;;13.94;100.00;99498.03;5070995;28;20052;-86
2023/10/13 02:39:10;;;;;;;43.75;29.67;;;;;;;13.93;100.00;99498.97;5072336;28;20043;-86
2023/10/13 02:41:38;;;;;;;37.83;25.00;;;;;;;14.18;100.00;99544.59;5072360;28;20025;-86
2023/10/13 02:44:06;;;;;;;36.40;23.30;;;;;;;14.19;100.00;99554.13;5070855;28;20020;-86
2023/10/13 02:46:35;;;;;;;35.97;22.38;;;;;;;14.12;100.00;99553.69;5070963;28;20024;-86
2023/10/13 02:49:02;;;;;;;29.88;22.10;;;;;;;14.15;100.00;99563.09;5071849;28;20032;-86
2023/10/13 02:51:37;;;;;;;27.15;19.70;;;;;;;13.82;100.00;99501.47;5072355;28;20063;-86
2023/10/13 02:54:09;;;;;;;34.83;22.92;;;;;;;14.03;100.00;99530.69;5072001;28;20112;-86
2023/10/13 02:56:35;;;;;;;30.20;22.48;;;;;;;13.79;100.00;99495.56;5070645;28;20051;-86
2023/10/13 02:59:04;;;;;;;30.48;21.48;;;;;;;14.10;100.00;99555.53;5071761;28;20107;-86
2023/10/13 03:01:33;;;;;;;31.70;20.75;;;;;;;14.15;100.00;99566.56;5070656;28;20505;-85
2023/10/13 03:04:00;;;;;;;25.98;19.30;;;;;;;14.15;100.00;99565.72;5071998;28;20169;-85
2023/10/13 03:06:33;;;;;;;27.67;19.33;;;;;;;13.88;100.00;99519.38;5072204;28;20024;-85
2023/10/13 03:09:15;;;;;;;24.60;18.52;;;;;;;14.17;100.00;99567.31;5071864;28;20108;-85
2023/10/13 03:11:48;;;;;;;;;;;;;;;14.14;100.00;99574.53;5072372;28;20032;-85
2023/10/13 03:14:23;;;;;;;31.08;21.05;;;;;;;13.90;100.00;99533.22;5070344;28;20345;-85
2023/10/13 03:16:49;;;;;;;30.15;20.38;;;;;;;13.88;100.00;99537.72;5071908;28;20472;-85
2023/10/13 03:19:15;;;;;;;30.48;21.13;;;;;;;13.94;100.00;99539.94;5070393;28;20520;-85
2023/10/13 03:21:44;;;;;;;28.15;19.85;;;;;;;14.12;100.00;99560.69;5071897;28;20033;-85
2023/10/13 03:24:13;;;;;;;25.73;18.95;;;;;;;14.06;100.00;99548.81;5070713;28;20067;-85
2023/10/13 03:26:44;;;;;;;25.90;19.38;;;;;;;14.02;100.00;99544.69;5072206;28;20105;-85
2023/10/13 03:29:13;;;;;;;27.52;20.02;;;;;;;14.16;100.00;99570.06;5074661;28;20028;-85
2023/10/13 03:31:39;;;;;;;24.77;19.63;;;;;;;14.07;100.00;99560.97;5075990;28;20032;-85
2023/10/13 03:34:09;;;;;;;28.40;19.67;;;;;;;13.87;100.00;99522.94;5074135;28;20032;-85
2023/10/13 03:36:56;;;;;;;24.50;19.02;;;;;;;13.88;100.00;99537.72;5074440;28;20029;-85
2023/10/13 03:39:27;;;;;;;24.05;18.23;;;;;;;13.93;100.00;99537.41;5075295;28;20490;-85
2023/10/13 03:41:53;;;;;;;24.27;19.02;;;;;;;14.03;100.00;99566.47;5074440;28;20024;-85
2023/10/13 03:44:19;;;;;;;23.88;18.95;;;;;;;13.98;100.00;99556.31;5075275;28;20035;-85
2023/10/13 03:46:47;;;;;;;26.50;18.40;;;;;;;14.02;100.00;99554.34;5074182;28;20028;-85
2023/10/13 03:49:21;;;;;;;23.02;18.75;;;;;;;14.04;100.00;99557.72;5075272;28;20017;-85
2023/10/13 03:51:47;;;;;;;30.00;20.92;;;;;;;13.75;100.00;99517.63;5075324;28;20160;-85
2023/10/13 03:54:16;;;;;;;25.52;19.80;;;;;;;13.83;100.00;99531.94;5075179;28;20027;-85
2023/10/13 03:56:44;;;;;;;26.75;19.05;;;;;;;13.85;100.00;99535.28;5073888;28;20105;-85
2023/10/13 03:59:17;;;;;;;23.60;18.80;;;;;;;13.83;100.00;99533.72;5073740;28;20067;-85
2023/10/13 04:04:11;;;;;;;22.58;18.23;;;;;;;13.92;100.00;99552.28;5074943;28;20119;-85
2023/10/13 04:17:14;;;;;;;27.45;19.48;;;;;;;13.68;100.00;99544.16;5077980;28;20036;-85
2023/10/13 04:26:04;;;;;;;21.88;18.60;;;;;;;13.41;100.00;99535.38;5074697;28;20086;-85
2023/10/13 04:28:34;;;;;;;22.73;17.40;;;;;;;13.37;100.00;99534.72;5074385;28;20028;-85
2023/10/13 04:31:11;;;;;;;24.13;19.10;;;;;;;13.30;100.00;99528.16;5073823;28;20082;-85
2023/10/13 04:33:55;;;;;;;25.23;18.48;;;;;;;13.30;100.00;99540.41;5074651;28;20024;-85
2023/10/13 04:38:56;;;;;;;27.48;18.88;;;;;;;12.70;100.00;99462.84;5073537;28;20040;-85
2023/10/13 04:41:31;;;;;;;24.88;18.67;;;;;;;12.81;100.00;99481.38;5074147;28;20016;-85
2023/10/13 04:44:04;;;;;;;23.73;18.17;;;;;;;12.93;100.00;99513.78;5072952;28;20535;-85
2023/10/13 04:46:53;;;;;;;23.30;18.40;;;;;;;12.99;100.00;99540.41;5074420;28;20031;-85
2023/10/13 04:49:35;;;;;;;22.33;17.13;;;;;;;12.89;100.00;99525.34;5072734;28;20032;-85
2023/10/13 05:46:35;;;;;;;37.00;26.15;;;;;;;12.67;100.00;99537.03;5093641;28;20506;-85
2023/10/13 06:29:41;;;;;;;28.30;21.25;;;;;;;15.73;100.00;99550.13;4952214;29;20037;-85
2023/10/13 06:32:12;;;;;;;27.70;20.13;;;;;;;15.81;100.00;99538.16;4952172;29;20039;-86
2023/10/13 06:34:44;;;;;;;25.95;19.52;;;;;;;15.92;100.00;99550.50;4951912;29;20491;-85
2023/10/13 06:37:32;;;;;;;22.40;18.98;;;;;;;15.82;100.00;99513.56;4935786;29;20027;-86
2023/10/13 06:40:05;;;;;;;29.13;18.90;;;;;;;16.17;100.00;99560.97;4986227;28;20508;-86
2023/10/13 06:42:34;;;;;;;19.98;16.77;;;;;;;16.39;100.00;99554.16;5009624;28;20456;-86
2023/10/13 06:45:08;;;;;;;24.83;18.75;;;;;;;16.46;100.00;99523.88;5009962;28;20038;-86
2023/10/13 06:47:33;;;;;;;19.05;15.98;;;;;;;16.78;100.00;99554.91;5009673;28;20076;-85
2023/10/13 06:50:00;;;;;;;22.02;15.52;;;;;;;16.93;100.00;99561.63;5009958;28;20533;-86
2023/10/13 06:52:29;;;;;;;22.67;15.85;;;;;;;16.90;100.00;99527.69;5009629;28;20037;-86
2023/10/13 06:54:55;;;;;;;20.17;15.93;;;;;;;17.09;100.00;99520.06;5009651;28;20034;-86
2023/10/13 06:57:20;;;;;;;21.65;16.67;;;;;;;17.11;100.00;99507.66;5009661;28;20045;-86
2023/10/13 06:59:47;;;;;;;19.67;15.48;;;;;;;17.56;100.00;99575.31;5011130;28;20441;-86
2023/10/13 07:02:21;;;;;;;22.10;17.38;;;;;;;17.67;100.00;99567.44;5073631;28;20024;-86
2023/10/13 07:04:47;;;;;;;25.98;18.58;;;;;;;17.93;100.00;99575.97;5074098;28;20184;-86
2023/10/13 07:07:15;;;;;;;22.63;17.75;;;;;;;18.03;100.00;99576.94;5073893;28;20069;-86
2023/10/13 07:09:49;;;;;;;24.13;19.00;;;;;;;18.01;100.00;99552.50;5092491;28;20047;-86
2023/10/13 07:12:22;;;;;;;24.27;20.60;;;;;;;18.20;100.00;99571.19;5073799;28;20020;-86
2023/10/13 07:15:10;;;;;;;32.42;24.75;;;;;;;18.29;100.00;99555.59;5092136;28;20481;-86
2023/10/13 07:17:39;;;;;;;28.13;21.60;;;;;;;18.39;100.00;99560.00;5091889;28;20066;-86
2023/10/13 07:20:15;;;;;;;29.98;23.75;;;;;;;18.58;100.00;99575.19;5091873;28;20053;-86
2023/10/13 07:22:57;;;;;;;27.45;22.80;;;;;;;18.77;100.00;99582.47;5088982;28;20119;-86
2023/10/13 07:25:26;;;;;;;28.92;23.42;;;;;;;18.93;100.00;99577.59;5091787;28;20024;-86
2023/10/13 07:27:53;;;;;;;31.25;23.42;;;;;;;19.06;100.00;99571.31;5073745;28;20050;-86
2023/10/13 07:30:23;;;;;;;30.75;23.45;;;;;;;19.19;100.00;99578.06;5073616;28;20042;-86
2023/10/13 07:32:51;;;;;;;32.22;24.05;;;;;;;19.19;100.00;99564.88;5091959;28;20032;-86
2023/10/13 07:35:24;;;;;;;27.92;23.30;;;;;;;19.27;100.00;99555.47;5091682;28;20028;-86
2023/10/13 07:37:52;;;;;;;24.92;20.45;;;;;;;19.42;100.00;99562.94;5073664;28;20046;-86
2023/10/13 07:43:08;;;;;;;26.75;21.67;;;;;;;19.58;100.00;99570.38;5091607;28;20482;-86
2023/10/13 07:45:36;;;;;;;24.25;19.92;;;;;;;19.70;100.00;99576.47;5090360;28;20085;-86
2023/10/13 07:48:11;;;;;;;26.27;20.52;;;;;;;19.53;100.00;99537.41;5091749;28;20020;-86
2023/10/13 07:50:40;;;;;;;26.13;19.33;;;;;;;19.74;100.00;99551.47;5091609;28;20028;-90
2023/10/13 07:53:18;;;;;;;24.92;20.45;;;;;;;19.78;100.00;99549.38;5072538;28;20024;-90
2023/10/13 07:55:44;;;;;;;24.17;20.85;;;;;;;19.82;100.00;99551.63;5073424;28;20056;-92
2023/10/13 07:59:13;;;;;;;24.13;18.25;;;;;;;19.86;100.00;99546.91;5048712;28;20029;-92
2023/10/13 08:02:20;;;;;;;24.30;19.00;;;;;;;19.73;100.00;99526.00;4989586;28;20048;-92
2023/10/13 08:04:49;;;;;;;24.80;19.48;;;;;;;19.95;100.00;99543.47;4935008;29;20398;-91
2023/10/13 08:07:14;;;;;;;22.13;18.05;;;;;;;20.10;100.00;99557.13;4935140;29;20131;-91
2023/10/13 08:09:40;;;;;;;24.52;21.08;;;;;;;20.02;100.00;99535.84;4934738;29;20051;-91
2023/10/13 08:12:51;;;;;;;24.77;18.42;;;;;;;20.12;100.00;99556.03;4951164;29;20047;-92
2023/10/13 08:15:40;;;;;;;22.92;17.70;;;;;;;20.03;100.00;99533.06;4915654;29;20047;-92
2023/10/13 08:19:17;;;;;;;23.67;19.65;;;;;;;19.75;100.00;99497.63;4849594;29;20061;-92
2023/10/13 08:45:20;;;;;;;18.60;15.13;;;;;;;19.86;100.00;99546.91;4884479;29;20164;-91
2023/10/13 08:48:12;;;;;;;22.65;16.65;;;;;;;19.90;100.00;99545.69;4900014;29;20519;-91
2023/10/13 09:57:58;;;;;;;12.95;10.35;;;;;;;19.85;100.00;99517.03;5012247;28;20073;-92
2023/10/13 10:04:51;;;;;;;11.05;9.55;;;;;;;20.08;100.00;99508.88;4972613;28;20101;-92
2023/10/13 10:08:48;;;;;;;12.93;9.68;;;;;;;19.71;100.00;99434.63;4972084;28;20510;-92
2023/10/13 10:12:00;;;;;;;10.27;9.15;;;;;;;20.21;100.00;99501.50;4953002;29;20035;-92
2023/10/13 10:22:44;;;;;;;11.68;8.93;;;;;;;20.24;100.00;99479.25;4914826;29;20487;-91
2023/10/13 10:26:15;;;;;;;8.65;7.85;;;;;;;20.17;100.00;99473.66;4858287;29;20524;-92
2023/10/13 11:02:32;;;;;;;8.63;7.82;;;;;;;19.88;100.00;99441.88;4893077;29;20120;-93
2023/10/13 12:20:35;;;;;;;7.47;4.90;;;;;;;21.12;98.21;99345.88;4843014;29;20585;-92
2023/10/13 12:24:03;;;;;;;4.80;4.30;;;;;;;21.16;98.66;99348.06;4860701;29;20097;-92
2023/10/13 12:34:46;;;;;;;5.10;4.13;;;;;;;21.21;100.00;99342.34;4862839;29;20551;-91
2023/10/13 13:01:52;;;;;;;4.47;4.07;;;;;;;21.06;100.00;99312.84;4973091;28;20045;-92
2023/10/13 13:05:44;;;;;;;7.18;5.55;;;;;;;21.04;100.00;99303.38;4915912;29;20119;-92
2023/10/13 13:09:28;;;;;;;6.32;4.82;;;;;;;20.98;100.00;99299.50;4902162;29;20496;-92
2023/10/13 13:16:39;;;;;;;4.97;4.55;;;;;;;20.63;100.00;99257.84;4787299;29;20171;-91
2023/10/13 13:20:10;;;;;;;6.03;4.60;;;;;;;20.74;100.00;99288.63;4750822;30;20075;-92
2023/10/13 13:27:05;;;;;;;6.18;4.47;;;;;;;20.60;100.00;99260.78;4733837;30;20437;-92
2023/10/13 13:30:50;;;;;;;6.10;4.47;;;;;;;20.75;100.00;99283.16;4646878;30;20043;-91
2023/10/13 13:34:26;;;;;;;5.47;4.90;;;;;;;20.66;100.00;99265.50;4563742;31;20086;-92
2023/10/13 13:41:18;;;;;;;7.10;4.72;;;;;;;20.57;100.00;99269.88;4417514;32;20060;-92
2023/10/13 13:48:47;;;;;;;8.87;5.67;;;;;;;20.43;100.00;99276.41;4406510;32;20061;-91
2023/10/13 13:56:25;;;;;;;7.40;4.85;;;;;;;20.34;100.00;99264.03;4423367;32;20060;-91
2023/10/13 14:07:24;;;;;;;9.75;6.25;;;;;;;19.91;100.00;99183.44;4452493;32;20063;-91
2023/10/13 14:27:08;;;;;;;7.28;6.40;;;;;;;20.25;100.00;99225.22;4631477;31;20062;-93
2023/10/13 14:29:42;;;;;;;8.52;6.90;;;;;;;20.25;100.00;99227.88;4659782;30;20042;-88
2023/10/13 14:32:17;;;;;;;8.20;6.80;;;;;;;20.19;100.00;99221.34;4662488;30;20522;-89
2023/10/13 14:34:45;;;;;;;10.27;7.43;;;;;;;20.06;100.00;99199.69;4662443;30;20045;-89
2023/10/13 14:37:20;;;;;;;8.45;6.80;;;;;;;20.11;100.00;99213.31;4728341;30;20437;-89
2023/10/13 14:39:46;;;;;;;10.20;6.75;;;;;;;20.10;100.00;99205.50;4825028;29;20039;-90
2023/10/13 14:42:11;;;;;;;12.63;7.10;;;;;;;20.00;100.00;99192.31;4876281;29;20060;-89
2023/10/13 14:44:37;;;;;;;8.63;5.90;;;;;;;20.01;100.00;99196.63;4876347;29;20043;-90
2023/10/13 14:47:05;;;;;;;6.65;5.95;;;;;;;20.02;100.00;99194.84;4904218;29;20079;-88
2023/10/13 14:49:31;;;;;;;8.82;6.70;;;;;;;20.00;100.00;99191.47;4971578;28;20042;-88
2023/10/13 14:51:59;;;;;;;8.32;6.15;;;;;;;19.99;100.00;99192.47;4973888;28;20482;-89
2023/10/13 14:54:33;;;;;;;11.65;6.43;;;;;;;19.87;100.00;99179.41;4974121;28;20026;-88
2023/10/13 14:57:00;;;;;;;7.45;6.15;;;;;;;19.96;100.00;99185.66;4973809;28;20045;-88
2023/10/13 14:59:27;;;;;;;12.68;7.47;;;;;;;19.96;100.00;99184.81;4973917;28;20038;-88
2023/10/13 15:01:52;;;;;;;9.70;6.80;;;;;;;19.85;100.00;99183.19;4974650;28;20121;-88
2023/10/13 15:04:18;;;;;;;10.15;7.38;;;;;;;19.86;100.00;99188.31;4973897;28;20129;-88
2023/10/13 15:06:44;;;;;;;9.68;7.00;;;;;;;19.90;100.00;99188.88;4973725;28;20022;-88
2023/10/13 15:09:11;;;;;;;8.68;6.88;;;;;;;19.51;100.00;99133.41;4986913;28;20033;-87
2023/10/13 15:11:37;;;;;;;11.15;7.28;;;;;;;19.81;100.00;99172.06;5068701;28;20053;-88
2023/10/13 15:14:06;;;;;;;8.73;7.72;;;;;;;19.82;100.00;99176.34;5070334;28;20119;-88
2023/10/13 15:16:33;;;;;;;10.88;7.47;;;;;;;19.67;100.00;99152.16;5073740;28;20383;-88
2023/10/13 15:18:59;;;;;;;9.25;7.20;;;;;;;19.73;100.00;99158.72;5073417;28;20032;-89
2023/10/13 15:21:37;;;;;;;8.75;7.20;;;;;;;19.80;100.00;99172.19;5073730;28;20020;-88
2023/10/13 15:24:13;;;;;;;10.57;7.15;;;;;;;19.75;100.00;99169.97;5076377;28;20023;-88
2023/10/13 15:26:56;;;;;;;11.32;7.32;;;;;;;19.76;100.00;99176.06;5077898;28;20024;-89
2023/10/13 15:29:26;;;;;;;10.80;7.43;;;;;;;19.65;100.00;99159.41;5077788;28;20016;-89
2023/10/13 15:34:27;;;;;;;9.23;7.15;;;;;;;19.62;100.00;99159.69;5096144;28;20028;-88
2023/10/13 15:36:55;;;;;;;12.27;8.20;;;;;;;19.62;100.00;99156.22;5077773;28;20020;-90
2023/10/13 15:39:24;;;;;;;14.23;9.25;;;;;;;19.59;100.00;99156.47;5077808;28;20020;-89
2023/10/13 15:41:53;;;;;;;15.10;9.85;;;;;;;19.47;100.00;99147.00;5077523;28;20020;-89
2023/10/13 15:44:20;;;;;;;15.13;9.35;;;;;;;19.51;100.00;99153.69;5077565;28;20031;-88
2023/10/13 15:46:49;;;;;;;10.98;8.30;;;;;;;19.42;100.00;99139.53;5077125;28;20086;-88
2023/10/13 15:49:17;;;;;;;13.20;9.32;;;;;;;19.41;100.00;99136.03;5052845;28;20559;-87
2023/10/13 15:51:43;;;;;;;13.02;10.15;;;;;;;19.32;100.00;99136.91;5036176;28;20037;-87
2023/10/13 15:54:14;;;;;;;14.13;8.68;;;;;;;19.36;100.00;99151.47;5036098;28;20036;-88
2023/10/13 15:56:41;;;;;;;;;;;;;;;19.29;100.00;99147.72;5036630;28;20060;-87
2023/10/13 15:59:07;;;;;;;10.80;8.07;;;;;;;19.18;100.00;99135.50;5035899;28;19919;-87
2023/10/13 16:01:33;;;;;;;11.50;8.35;;;;;;;19.23;100.00;99145.66;5036319;28;20086;-87
2023/10/13 16:03:59;;;;;;;10.77;7.88;;;;;;;19.15;100.00;99150.78;5035768;28;20040;-87
2023/10/13 16:06:25;;;;;;;11.98;7.82;;;;;;;19.11;100.00;99152.03;5036490;28;20025;-89
2023/10/13 16:08:51;;;;;;;10.85;7.82;;;;;;;18.88;100.00;99112.72;5035787;28;20079;-88
2023/10/13 16:11:20;;;;;;;9.63;7.85;;;;;;;19.00;100.00;99150.34;5035790;28;20080;-87
2023/10/13 16:13:46;;;;;;;10.85;8.00;;;;;;;18.98;100.00;99144.38;5035962;28;20029;-88
2023/10/13 16:16:16;;;;;;;13.05;7.38;;;;;;;18.92;100.00;99145.78;5035538;28;20467;-87
2023/10/13 16:18:43;;;;;;;9.05;6.85;;;;;;;18.76;100.00;99127.00;5035774;28;20661;-88
2023/10/13 16:21:12;;;;;;;10.13;7.88;;;;;;;18.80;100.00;99132.84;5071799;28;20139;-88
2023/10/13 16:23:38;;;;;;;9.68;7.88;;;;;;;18.71;100.00;99131.84;5076846;28;20064;-87
2023/10/13 16:26:07;;;;;;;10.27;7.63;;;;;;;18.63;100.00;99129.03;5076519;28;20417;-88
2023/10/13 16:28:34;;;;;;;9.85;7.47;;;;;;;18.60;100.00;99130.13;5076707;28;20023;-88
2023/10/13 16:31:00;;;;;;;32.42;23.63;;;;;;;18.47;100.00;99123.44;5076095;28;20046;-87
2023/10/13 16:33:25;;;;;;;31.75;22.52;;;;;;;18.48;100.00;99128.56;5076543;28;20110;-88
2023/10/13 16:35:53;;;;;;;35.47;26.42;;;;;;;18.46;100.00;99127.88;5075188;28;20060;-88
2023/10/13 16:38:19;;;;;;;21.92;15.02;;;;;;;18.25;100.00;99106.03;5076393;28;20028;-88
2023/10/13 16:40:44;;;;;;;11.73;10.10;;;;;;;18.29;100.00;99120.59;5076396;28;20039;-88
2023/10/13 16:43:12;;;;;;;13.25;9.27;;;;;;;18.31;100.00;99122.13;5094269;28;20035;-88
2023/10/13 16:45:43;;;;;;;17.85;10.85;;;;;;;18.36;100.00;99135.72;5076385;28;20044;-88
2023/10/13 16:48:09;;;;;;;;;;;;;;;18.29;100.00;99126.72;5076522;28;20031;-88
2023/10/13 16:50:37;;;;;;;11.15;8.85;;;;;;;18.31;100.00;99126.56;5076433;28;19908;-88
2023/10/13 16:53:06;;;;;;;13.35;8.85;;;;;;;18.27;100.00;99119.88;5075937;28;20096;-88
2023/10/13 16:55:31;;;;;;;14.80;8.13;;;;;;;18.31;100.00;99126.56;5076398;28;20082;-88
2023/10/13 16:57:57;;;;;;;12.27;8.02;;;;;;;18.30;100.00;99125.72;5076036;28;20027;-88
2023/10/13 17:00:26;;;;;;;11.68;8.45;;;;;;;18.30;100.00;99119.63;5076048;28;20081;-88
2023/10/13 17:02:56;;;;;;;16.50;10.13;;;;;;;18.31;100.00;99135.31;5031110;28;20040;-88
2023/10/13 17:05:22;;;;;;;11.23;8.88;;;;;;;18.28;100.00;99124.19;5031460;28;20131;-88
2023/10/13 17:07:50;;;;;;;14.23;8.55;;;;;;;18.16;100.00;99107.63;5014786;28;20041;-88
2023/10/13 17:10:17;;;;;;;12.90;8.85;;;;;;;18.20;100.00;99109.03;5014579;28;20132;-89
2023/10/13 17:12:44;;;;;;;15.82;10.43;;;;;;;18.20;100.00;99109.03;5014929;28;20037;-88
2023/10/13 17:15:22;;;;;;;18.75;11.63;;;;;;;18.18;100.00;99105.72;5031215;28;20104;-86
2023/10/13 17:17:50;;;;;;;14.35;9.85;;;;;;;18.17;100.00;99114.59;5031480;28;20052;-87
2023/10/13 17:20:19;;;;;;;11.80;8.77;;;;;;;18.15;100.00;99106.78;5014589;28;20025;-89
2023/10/13 17:22:47;;;;;;;13.20;8.70;;;;;;;18.15;100.00;99114.69;5014788;28;20531;-87
2023/10/13 17:25:13;;;;;;;10.90;9.68;;;;;;;18.14;100.00;99106.94;5014563;28;20029;-87
2023/10/13 17:27:47;;;;;;;18.90;12.65;;;;;;;18.03;100.00;99097.31;5030932;28;20041;-88
2023/10/13 17:30:13;;;;;;;21.23;17.10;;;;;;;17.95;100.00;99084.81;5030806;28;20436;-87
2023/10/13 17:32:38;;;;;;;20.42;15.43;;;;;;;18.06;100.00;99093.59;5014391;28;20033;-88
2023/10/13 17:35:06;;;;;;;19.45;15.35;;;;;;;18.02;100.00;99084.28;5071859;28;20422;-88
2023/10/13 17:37:33;;;;;;;18.27;13.80;;;;;;;18.10;100.00;99101.09;5089137;28;20068;-87
2023/10/13 17:40:07;;;;;;;20.52;14.38;;;;;;;18.08;100.00;99096.94;5092049;28;20043;-88
2023/10/13 17:42:35;;;;;;;18.38;14.13;;;;;;;18.02;100.00;99105.34;5084915;28;20566;-87
2023/10/13 17:45:01;;;;;;;20.00;16.33;;;;;;;17.91;100.00;99083.41;5078650;28;20024;-88
2023/10/13 17:47:27;;;;;;;22.38;16.65;;;;;;;17.70;100.00;99058.88;5071477;28;20081;-87
2023/10/13 17:49:52;;;;;;;19.13;17.20;;;;;;;17.70;100.00;99059.72;5071725;28;20024;-86
2023/10/13 17:52:17;;;;;;;21.92;17.58;;;;;;;17.45;100.00;99026.72;5071497;28;20052;-89
2023/10/13 17:54:45;;;;;;;47.08;31.45;;;;;;;17.81;100.00;99082.50;5071704;28;20480;-88
2023/10/13 17:57:10;;;;;;;43.30;29.65;;;;;;;17.80;100.00;99085.28;5071348;28;20550;-87
2023/10/13 17:59:35;;;;;;;35.53;24.90;;;;;;;17.56;100.00;99049.50;5071538;28;20077;-87
2023/10/13 18:02:04;;;;;;;30.27;21.70;;;;;;;17.77;100.00;99077.63;5071307;28;20024;-89
2023/10/13 18:04:31;;;;;;;28.52;20.67;;;;;;;17.63;100.00;99055.09;5069471;28;20025;-88
2023/10/13 18:06:56;;;;;;;34.17;25.75;;;;;;;17.75;100.00;99075.16;5071090;28;20380;-89
2023/10/13 18:09:27;;;;;;;32.15;24.15;;;;;;;17.71;100.00;99082.44;5072223;28;20021;-88
2023/10/13 18:11:54;;;;;;;22.98;19.75;;;;;;;17.70;100.00;99080.78;5074660;28;20020;-88
2023/10/13 18:14:21;;;;;;;24.15;15.82;;;;;;;17.70;100.00;99072.06;5074504;28;20104;-88
2023/10/13 18:16:49;;;;;;;22.05;14.57;;;;;;;17.69;100.00;99071.19;5074465;28;20020;-89
2023/10/13 18:19:20;;;;;;;20.45;15.32;;;;;;;17.65;100.00;99067.16;5069598;28;20033;-88
2023/10/13 18:21:46;;;;;;;19.75;14.48;;;;;;;17.61;100.00;99065.78;5070019;28;20445;-89
2023/10/13 18:24:12;;;;;;;19.92;15.38;;;;;;;17.59;100.00;99064.22;5053023;28;20058;-89
2023/10/13 18:26:38;;;;;;;22.67;15.80;;;;;;;17.53;100.00;99062.94;5053110;28;20016;-88
2023/10/13 18:29:24;;;;;;;16.08;13.27;;;;;;;17.31;100.00;99027.06;5049875;28;20032;-89
2023/10/13 18:31:51;;;;;;;17.38;12.35;;;;;;;17.34;100.00;99034.69;5033251;28;20411;-89
2023/10/13 18:34:18;;;;;;;20.20;13.13;;;;;;;17.42;100.00;99047.22;5032966;28;20047;-89
2023/10/13 18:36:46;;;;;;;16.75;11.90;;;;;;;17.39;100.00;99036.94;5033131;28;20028;-89
2023/10/13 18:39:18;;;;;;;15.85;10.75;;;;;;;17.17;100.00;99011.59;5032638;28;20036;-88
2023/10/13 18:41:59;;;;;;;17.70;11.57;;;;;;;17.22;100.00;99022.56;5029533;28;20040;-88
2023/10/13 18:44:27;;;;;;;17.42;12.32;;;;;;;17.18;100.00;99019.34;5009695;28;20088;-88
2023/10/13 18:46:54;;;;;;;13.63;10.32;;;;;;;17.28;100.00;99026.50;5009846;28;20061;-89